createdAt,value
2019-06-26T00:09:32.317Z,24.75
2019-06-26T00:19:32.311Z,24.61
2019-06-26T00:29:32.333Z,24.43
2019-06-26T00:39:32.340Z,24.26
2019-06-26T00:49:32.338Z,24.11
2019-06-26T00:59:32.407Z,23.97
2019-06-26T01:09:32.365Z,23.83
2019-06-26T01:19:32.312Z,23.77
2019-06-26T01:29:32.755Z,23.51
2019-06-26T01:39:32.379Z,23.12
2019-06-26T01:49:32.420Z,22.84
2019-06-26T01:59:32.423Z,22.57
2019-06-26T02:09:32.364Z,22.61
2019-06-26T02:19:32.344Z,22.39
2019-06-26T02:29:32.417Z,22.18
2019-06-26T02:39:32.387Z,21.84
2019-06-26T02:49:32.336Z,21.77
2019-06-26T02:59:32.409Z,21.79
2019-06-26T03:09:32.333Z,21.77
2019-06-26T03:19:32.455Z,21.67
2019-06-26T03:29:32.409Z,21.79
2019-06-26T03:39:32.341Z,21.77
2019-06-26T03:49:32.475Z,21.80
2019-06-26T03:59:32.443Z,21.79
2019-06-26T04:09:32.364Z,21.80
2019-06-26T04:19:32.424Z,21.89
2019-06-26T04:29:32.413Z,22.07
2019-06-26T04:39:32.389Z,22.16
2019-06-26T04:49:32.483Z,22.19
2019-06-26T04:59:32.399Z,22.21
2019-06-26T05:09:32.418Z,22.35
2019-06-26T05:19:32.384Z,22.38
2019-06-26T05:29:32.548Z,22.42
2019-06-26T05:39:32.517Z,22.48
2019-06-26T05:49:32.558Z,22.74
2019-06-26T05:59:32.480Z,23.32
2019-06-26T06:09:32.761Z,24.09
2019-06-26T06:19:32.529Z,24.59
2019-06-26T06:29:32.507Z,24.91
2019-06-26T06:39:32.542Z,24.93
2019-06-26T06:49:33.252Z,24.74
2019-06-26T06:59:32.569Z,26.12
2019-06-26T07:09:32.583Z,26.42
2019-06-26T07:19:32.563Z,26.77
2019-06-26T07:29:33.334Z,26.79
2019-06-26T07:39:32.582Z,27.41
2019-06-26T07:49:32.539Z,28.12
2019-06-26T07:59:32.621Z,27.98
2019-06-26T08:09:32.585Z,28.78
2019-06-26T08:19:32.548Z,29.12
2019-06-26T08:29:33.480Z,29.88
2019-06-26T08:39:32.619Z,30.59
2019-06-26T08:49:32.776Z,30.69
2019-06-26T08:59:32.621Z,31.17
2019-06-26T09:09:32.587Z,31.87
2019-06-26T09:19:32.559Z,31.06
2019-06-26T09:29:32.620Z,31.15
2019-06-26T09:39:32.572Z,31.12
2019-06-26T09:49:32.762Z,31.98
2019-06-26T09:59:32.498Z,32.53
2019-06-26T10:09:32.766Z,32.17
2019-06-26T10:19:32.643Z,32.97
2019-06-26T10:29:32.644Z,33.71
2019-06-26T10:39:32.616Z,33.23
2019-06-26T10:49:33.608Z,33.33
2019-06-26T10:59:32.605Z,34.01
2019-06-26T11:09:32.711Z,33.72
2019-06-26T11:19:43.354Z,33.91
2019-06-26T11:29:32.760Z,33.57
2019-06-26T11:39:32.702Z,33.79
2019-06-26T11:49:33.721Z,33.57
2019-06-26T11:59:32.868Z,33.56
2019-06-26T12:09:33.646Z,34.91
2019-06-26T12:19:34.249Z,34.65
2019-06-26T12:29:33.097Z,34.68
2019-06-26T12:39:32.691Z,34.79
2019-06-26T12:49:32.665Z,34.45
2019-06-26T12:59:32.749Z,34.36
2019-06-26T13:09:32.729Z,34.30
2019-06-26T13:19:33.281Z,34.70
2019-06-26T13:29:33.142Z,34.64
2019-06-26T13:39:32.614Z,34.81
2019-06-26T13:49:32.790Z,35.18
2019-06-26T13:59:32.734Z,35.32
2019-06-26T14:09:32.715Z,34.39
2019-06-26T14:19:32.792Z,34.41
2019-06-26T14:29:40.342Z,34.52
2019-06-26T22:05:17.516Z,22.25
2019-06-26T22:15:17.585Z,21.97
2019-06-26T22:25:17.488Z,21.73
2019-06-26T22:35:17.617Z,21.58
2019-06-26T22:45:17.677Z,21.41
2019-06-26T22:55:17.653Z,21.24
2019-06-26T23:05:17.613Z,21.06
2019-06-26T23:15:17.593Z,20.80
2019-06-26T23:25:17.665Z,20.63
2019-06-26T23:35:17.545Z,20.44
2019-06-26T23:45:17.597Z,20.28
2019-06-26T23:55:17.638Z,20.12
